createdAt,value
2019-05-10T00:00:53.707Z,10.64
2019-05-10T00:01:53.701Z,10.67
2019-05-10T00:02:53.689Z,10.70
2019-05-10T00:03:53.672Z,10.66
2019-05-10T00:04:53.691Z,10.67
2019-05-10T00:05:53.651Z,10.64
2019-05-10T00:06:53.674Z,10.66
2019-05-10T00:07:53.632Z,10.61
2019-05-10T00:08:53.633Z,10.63
2019-05-10T00:09:53.639Z,10.66
2019-05-10T00:10:53.606Z,10.67
2019-05-10T00:11:53.639Z,10.60
2019-05-10T00:12:53.610Z,10.56
2019-05-10T00:13:53.571Z,10.59
2019-05-10T00:14:53.554Z,10.66
2019-05-10T00:15:53.603Z,10.64
2019-05-10T00:16:53.538Z,10.56
2019-05-10T00:17:53.537Z,10.64
2019-05-10T00:18:53.527Z,10.60
2019-05-10T00:19:53.522Z,10.61
2019-05-10T00:20:53.495Z,10.55
2019-05-10T00:21:53.508Z,10.67
2019-05-10T00:22:53.488Z,10.61
2019-05-10T00:23:53.511Z,10.55
2019-05-10T00:25:04.040Z,10.56
2019-05-10T00:25:54.465Z,10.60
2019-05-10T00:26:53.424Z,10.53
2019-05-10T00:27:53.424Z,10.60
2019-05-10T00:28:53.423Z,10.59
2019-05-10T00:29:53.400Z,10.52
2019-05-10T00:30:53.414Z,10.51
2019-05-10T00:31:53.381Z,10.47
2019-05-10T00:32:53.365Z,10.51
2019-05-10T00:33:53.348Z,10.59
2019-05-10T00:34:53.365Z,10.47
2019-05-10T00:35:53.395Z,10.55
2019-05-10T00:36:53.360Z,10.51
2019-05-10T00:37:53.316Z,10.52
2019-05-10T00:38:53.312Z,10.44
2019-05-10T00:39:53.284Z,10.51
2019-05-10T00:40:53.294Z,10.42
2019-05-10T00:41:53.305Z,10.51
2019-05-10T00:42:53.253Z,10.47
2019-05-10T00:43:53.257Z,10.48
2019-05-10T00:44:53.235Z,10.41
2019-05-10T00:45:53.251Z,10.40
2019-05-10T00:46:53.215Z,10.40
2019-05-10T00:47:53.229Z,10.34
2019-05-10T00:48:53.193Z,10.34
2019-05-10T00:49:53.174Z,10.34
2019-05-10T00:50:53.191Z,10.42
2019-05-10T00:51:53.180Z,10.34
2019-05-10T00:52:53.142Z,10.38
2019-05-10T00:53:53.140Z,10.33
2019-05-10T00:54:53.127Z,10.29
2019-05-10T00:55:53.154Z,10.33
2019-05-10T00:56:53.104Z,10.33
2019-05-10T00:57:53.116Z,10.40
2019-05-10T00:58:53.113Z,10.40
2019-05-10T00:59:53.068Z,10.32
2019-05-10T01:00:53.056Z,10.32
2019-05-10T01:01:53.068Z,10.40
2019-05-10T01:02:53.047Z,10.40
2019-05-10T01:03:53.025Z,10.33
2019-05-10T01:04:53.017Z,10.32
2019-05-10T01:05:53.015Z,10.38
2019-05-10T01:06:56.240Z,10.33
2019-05-10T01:07:53.004Z,10.40
2019-05-10T01:08:52.973Z,10.36
2019-05-10T01:09:52.970Z,10.34
2019-05-10T01:10:52.969Z,10.32
2019-05-10T01:11:52.959Z,10.33
2019-05-10T01:12:52.931Z,10.34
2019-05-10T01:13:52.919Z,10.30
2019-05-10T01:14:52.912Z,10.33
2019-05-10T01:15:52.894Z,10.38
2019-05-10T01:16:52.915Z,10.32
2019-05-10T01:17:52.877Z,10.41
2019-05-10T01:18:52.879Z,10.32
2019-05-10T01:19:52.925Z,10.32
2019-05-10T01:20:52.845Z,10.30
2019-05-10T01:21:52.852Z,10.36
2019-05-10T01:22:52.815Z,10.27
2019-05-10T01:23:52.824Z,10.25
2019-05-10T01:24:52.815Z,10.26
2019-05-10T01:25:52.791Z,10.30
2019-05-10T01:26:52.806Z,10.38
2019-05-10T01:27:52.770Z,10.34
2019-05-10T01:28:52.770Z,10.27
2019-05-10T01:29:52.745Z,10.30
2019-05-10T01:30:52.737Z,10.30
2019-05-10T01:31:52.730Z,10.25
2019-05-10T01:32:52.803Z,10.23
2019-05-10T01:33:52.707Z,10.23
2019-05-10T01:34:52.706Z,10.27
2019-05-10T01:35:52.681Z,10.27
2019-05-10T01:36:52.684Z,10.29
2019-05-10T01:37:52.691Z,10.27
2019-05-10T01:38:52.653Z,10.25
2019-05-10T01:39:52.641Z,10.32
2019-05-10T01:40:52.626Z,10.22
2019-05-10T01:41:52.618Z,10.29
2019-05-10T01:42:52.691Z,10.25
2019-05-10T01:43:52.612Z,10.23
2019-05-10T01:44:52.586Z,10.34
2019-05-10T01:45:52.567Z,10.23
2019-05-10T01:46:52.564Z,10.20
2019-05-10T01:47:52.569Z,10.26
2019-05-10T01:48:52.593Z,10.22
2019-05-10T01:49:52.523Z,10.32
2019-05-10T01:50:52.510Z,10.32
2019-05-10T01:51:52.497Z,10.26
2019-05-10T01:52:52.517Z,10.30
2019-05-10T01:53:52.481Z,10.29
2019-05-10T01:54:52.514Z,10.23
2019-05-10T01:55:53.093Z,10.27
2019-05-10T01:56:52.451Z,10.20
2019-05-10T01:57:52.462Z,10.26
2019-05-10T01:58:52.460Z,10.23
2019-05-10T01:59:52.432Z,10.22
2019-05-10T02:00:52.398Z,10.25
2019-05-10T02:01:52.404Z,10.27
2019-05-10T02:02:52.417Z,10.23
2019-05-10T02:03:52.375Z,10.18
2019-05-10T02:04:52.361Z,10.22
2019-05-10T02:05:52.360Z,10.17
2019-05-10T02:06:52.338Z,10.22
2019-05-10T02:07:52.332Z,10.20
2019-05-10T02:08:52.329Z,10.20
2019-05-10T02:09:52.315Z,10.25
2019-05-10T02:10:52.294Z,10.18
2019-05-10T02:11:52.292Z,10.09
2019-05-10T02:12:52.272Z,10.17
2019-05-10T02:13:52.306Z,10.18
2019-05-10T02:14:52.255Z,10.15
2019-05-10T02:15:52.235Z,10.14
2019-05-10T02:16:52.227Z,10.14
2019-05-10T02:17:52.232Z,10.14
2019-05-10T02:18:52.238Z,10.11
2019-05-10T02:19:52.187Z,9.97
2019-05-10T02:20:52.175Z,10.08
2019-05-10T02:21:52.170Z,10.12
2019-05-10T02:22:52.162Z,9.99
2019-05-10T02:23:52.174Z,9.96
2019-05-10T02:24:52.146Z,9.99
2019-05-10T02:26:07.243Z,9.97
2019-05-10T02:26:53.115Z,9.97
2019-05-10T02:27:52.115Z,9.97
2019-05-10T02:28:52.095Z,9.96
2019-05-10T02:29:52.103Z,10.05
2019-05-10T02:30:52.085Z,9.96
2019-05-10T02:31:52.058Z,10.01
2019-05-10T02:32:52.045Z,9.93
2019-05-10T02:33:52.096Z,10.01
2019-05-10T02:34:52.032Z,9.99
2019-05-10T02:35:52.036Z,9.97
2019-05-10T02:36:52.015Z,9.96
2019-05-10T02:37:52.006Z,9.96
2019-05-10T02:38:51.994Z,9.94
2019-05-10T02:39:51.993Z,9.87
2019-05-10T02:40:51.961Z,9.84
2019-05-10T02:41:51.970Z,9.83
2019-05-10T02:42:51.963Z,9.86
2019-05-10T02:43:51.923Z,9.89
2019-05-10T02:44:51.952Z,9.79
2019-05-10T02:45:51.912Z,9.78
2019-05-10T02:46:51.906Z,9.79
2019-05-10T02:47:51.911Z,9.90
2019-05-10T02:48:51.883Z,9.90
2019-05-10T02:49:51.862Z,9.81
2019-05-10T02:50:51.869Z,9.81
2019-05-10T02:51:51.838Z,9.79
2019-05-10T02:52:51.919Z,9.83
2019-05-10T02:53:51.813Z,9.78
2019-05-10T02:54:51.817Z,9.84
2019-05-10T02:55:51.826Z,9.74
2019-05-10T02:56:51.828Z,9.64
2019-05-10T02:57:51.778Z,9.78
2019-05-10T02:58:51.774Z,9.74
2019-05-10T02:59:51.785Z,9.71
2019-05-10T03:00:51.737Z,9.76
2019-05-10T03:01:51.728Z,9.69
2019-05-10T03:02:51.724Z,9.78
2019-05-10T03:03:51.716Z,9.78
2019-05-10T03:04:51.718Z,9.71
2019-05-10T03:05:51.685Z,9.78
2019-05-10T03:06:51.680Z,9.68
2019-05-10T03:07:51.678Z,9.78
2019-05-10T03:08:51.671Z,9.71
2019-05-10T03:09:51.646Z,9.71
2019-05-10T03:10:51.648Z,9.68
2019-05-10T03:11:51.616Z,9.75
2019-05-10T03:12:51.627Z,9.72
2019-05-10T03:13:51.637Z,9.74
2019-05-10T03:14:51.597Z,9.71
2019-05-10T03:15:51.591Z,9.66
2019-05-10T03:16:51.613Z,9.72
2019-05-10T03:17:51.577Z,9.71
2019-05-10T03:18:51.554Z,9.64
2019-05-10T03:19:51.542Z,9.74
2019-05-10T03:20:51.530Z,9.69
2019-05-10T03:21:51.536Z,9.72
2019-05-10T03:22:51.499Z,9.66
2019-05-10T03:23:51.503Z,9.66
2019-05-10T03:24:51.497Z,9.66
2019-05-10T03:25:51.474Z,9.72
2019-05-10T03:26:51.870Z,9.69
2019-05-10T03:27:51.447Z,9.71
2019-05-10T03:28:51.537Z,9.81
2019-05-10T03:29:51.435Z,9.76
2019-05-10T03:30:51.475Z,9.71
2019-05-10T03:31:51.390Z,9.78
2019-05-10T03:32:51.406Z,9.76
2019-05-10T03:33:56.242Z,9.71
2019-05-10T03:34:52.355Z,9.66
2019-05-10T03:35:51.370Z,9.72
2019-05-10T03:36:51.363Z,9.69
2019-05-10T03:37:51.332Z,9.68
2019-05-10T03:38:51.321Z,9.69
2019-05-10T03:39:51.335Z,9.72
2019-05-10T03:40:51.358Z,9.65
2019-05-10T03:41:51.301Z,9.66
2019-05-10T03:42:51.278Z,9.72
2019-05-10T03:43:51.273Z,9.74
2019-05-10T03:44:51.264Z,9.74
2019-05-10T03:45:51.234Z,9.64
2019-05-10T03:46:51.249Z,9.72
2019-05-10T03:47:51.236Z,9.61
2019-05-10T03:48:51.222Z,9.74
2019-05-10T03:49:51.192Z,9.60
2019-05-10T03:50:51.201Z,9.60
2019-05-10T03:51:51.184Z,9.64
2019-05-10T03:52:52.473Z,9.60
2019-05-10T03:53:51.153Z,9.66
2019-05-10T03:54:51.136Z,9.68
2019-05-10T03:55:51.132Z,9.60
2019-05-10T03:57:10.299Z,9.61
2019-05-10T03:57:52.127Z,9.57
2019-05-10T03:58:51.093Z,9.60
2019-05-10T03:59:51.081Z,9.66
2019-05-10T04:00:51.084Z,9.54
2019-05-10T04:01:51.066Z,9.61
2019-05-10T04:02:51.081Z,9.60
2019-05-10T04:03:51.049Z,9.58
2019-05-10T04:04:51.031Z,9.61
2019-05-10T04:05:51.013Z,9.56
2019-05-10T04:06:51.047Z,9.51
2019-05-10T04:07:51.018Z,9.51
2019-05-10T04:08:50.979Z,9.53
2019-05-10T04:09:51.017Z,9.57
2019-05-10T04:10:50.972Z,9.51
2019-05-10T04:11:50.946Z,9.54
2019-05-10T04:12:51.045Z,9.51
2019-05-10T04:13:50.931Z,9.48
2019-05-10T04:14:50.966Z,9.57
2019-05-10T04:15:50.905Z,9.53
2019-05-10T04:16:50.923Z,9.53
2019-05-10T04:17:50.922Z,9.43
2019-05-10T04:18:50.877Z,9.53
2019-05-10T04:19:50.872Z,9.48
2019-05-10T04:20:50.855Z,9.46
2019-05-10T04:21:50.842Z,9.54
2019-05-10T04:22:50.861Z,9.40
2019-05-10T04:23:50.852Z,9.39
2019-05-10T04:24:50.815Z,9.51
2019-05-10T04:25:50.809Z,9.54
2019-05-10T04:26:50.792Z,9.57
2019-05-10T04:27:50.794Z,9.53
2019-05-10T04:28:50.791Z,9.46
2019-05-10T04:29:50.757Z,9.53
2019-05-10T04:30:50.765Z,9.48
2019-05-10T04:31:50.741Z,9.54
2019-05-10T04:32:50.739Z,9.48
2019-05-10T04:33:50.734Z,9.53
2019-05-10T04:34:50.711Z,9.50
2019-05-10T04:35:50.697Z,9.56
2019-05-10T04:36:50.683Z,9.54
2019-05-10T04:37:50.681Z,9.39
2019-05-10T04:38:50.672Z,9.51
2019-05-10T04:39:50.651Z,9.53
2019-05-10T04:40:50.634Z,9.51
2019-05-10T04:41:50.632Z,9.58
2019-05-10T04:42:50.608Z,9.56
2019-05-10T04:43:50.650Z,9.51
2019-05-10T04:44:53.289Z,9.54
2019-05-10T04:45:50.586Z,9.47
2019-05-10T04:46:50.652Z,9.50
2019-05-10T04:47:50.570Z,9.48
2019-05-10T04:48:50.673Z,9.57
2019-05-10T04:49:50.588Z,9.53
2019-05-10T04:50:50.584Z,9.54
2019-05-10T04:51:50.532Z,9.54
2019-05-10T04:52:50.491Z,9.51
2019-05-10T04:53:50.505Z,9.60
2019-05-10T04:54:50.480Z,9.51
2019-05-10T04:55:50.458Z,9.58
2019-05-10T04:56:50.456Z,9.60
2019-05-10T04:57:51.445Z,9.64
2019-05-10T04:58:50.468Z,9.64
2019-05-10T04:59:50.422Z,9.60
2019-05-10T05:00:50.414Z,9.58
2019-05-10T05:01:50.404Z,9.61
2019-05-10T05:02:50.404Z,9.65
2019-05-10T05:03:50.418Z,9.57
2019-05-10T05:04:50.368Z,9.69
2019-05-10T05:05:50.359Z,9.57
2019-05-10T05:06:50.347Z,9.61
2019-05-10T05:07:50.328Z,9.72
2019-05-10T05:08:50.337Z,9.68
2019-05-10T05:09:50.304Z,9.75
2019-05-10T05:10:50.294Z,9.76
2019-05-10T05:11:50.301Z,9.89
2019-05-10T05:12:50.277Z,9.76
2019-05-10T05:13:50.273Z,9.74
2019-05-10T05:14:50.248Z,9.84
2019-05-10T05:15:50.239Z,9.86
2019-05-10T05:16:50.226Z,9.87
2019-05-10T05:17:50.243Z,9.84
2019-05-10T05:18:50.234Z,9.79
2019-05-10T05:19:50.201Z,9.90
2019-05-10T05:20:50.187Z,9.99
2019-05-10T05:21:50.170Z,9.93
2019-05-10T05:22:50.165Z,9.93
2019-05-10T05:23:50.167Z,10.04
2019-05-10T05:24:54.852Z,9.99
2019-05-10T05:25:51.135Z,10.11
2019-05-10T05:26:50.161Z,10.15
2019-05-10T05:28:05.345Z,10.09
2019-05-10T05:28:51.137Z,10.08
2019-05-10T05:29:50.116Z,10.20
2019-05-10T05:30:50.093Z,10.15
2019-05-10T05:31:54.106Z,10.18
2019-05-10T05:32:51.068Z,10.26
2019-05-10T05:33:50.035Z,10.25
2019-05-10T05:34:50.065Z,10.25
2019-05-10T05:35:50.046Z,10.25
2019-05-10T05:36:50.011Z,10.30
2019-05-10T05:37:49.996Z,10.33
2019-05-10T05:38:50.011Z,10.36
2019-05-10T05:39:50.007Z,10.40
2019-05-10T05:40:49.959Z,10.47
2019-05-10T05:41:51.734Z,10.42
2019-05-10T05:42:49.957Z,10.44
2019-05-10T05:43:49.936Z,10.52
2019-05-10T05:44:49.937Z,10.56
2019-05-10T05:45:49.903Z,10.47
2019-05-10T05:46:49.901Z,10.53
2019-05-10T05:47:49.894Z,10.63
2019-05-10T05:48:51.634Z,10.60
2019-05-10T05:49:49.871Z,10.67
2019-05-10T05:50:49.874Z,10.60
2019-05-10T05:51:49.845Z,10.70
2019-05-10T05:52:49.827Z,10.71
2019-05-10T05:53:49.914Z,10.78
2019-05-10T05:54:52.939Z,10.82
2019-05-10T05:55:50.817Z,10.84
2019-05-10T05:56:50.772Z,10.91
2019-05-10T05:57:49.792Z,10.97
2019-05-10T05:58:49.773Z,10.96
2019-05-10T05:59:49.777Z,10.97
2019-05-10T06:00:49.806Z,11.04
2019-05-10T06:01:49.737Z,11.07
2019-05-10T06:02:49.718Z,11.10
2019-05-10T06:03:49.726Z,11.14
2019-05-10T06:04:49.709Z,11.15
2019-05-10T06:05:49.717Z,11.15
2019-05-10T06:06:53.619Z,11.17
2019-05-10T06:07:52.364Z,11.29
2019-05-10T06:08:54.572Z,11.28
2019-05-10T06:09:50.646Z,11.36
2019-05-10T06:10:56.489Z,11.29
2019-05-10T06:11:50.633Z,11.37
2019-05-10T06:12:50.598Z,11.42
2019-05-10T06:13:49.632Z,11.49
2019-05-10T06:14:52.175Z,11.46
2019-05-10T06:15:49.628Z,11.51
2019-05-10T06:16:51.463Z,11.55
2019-05-10T06:17:56.595Z,11.57
2019-05-10T06:18:50.563Z,11.55
2019-05-10T06:19:49.533Z,11.65
2019-05-10T06:20:49.524Z,11.69
2019-05-10T06:21:49.572Z,11.72
2019-05-10T06:23:05.757Z,11.67
2019-05-10T06:23:50.492Z,11.69
2019-05-10T06:24:52.499Z,11.69
2019-05-10T06:25:49.507Z,11.65
2019-05-10T06:26:49.479Z,11.72
2019-05-10T06:27:49.445Z,11.83
2019-05-10T06:29:10.467Z,11.83
2019-05-10T06:29:50.427Z,11.76
2019-05-10T06:30:49.492Z,11.85
2019-05-10T06:31:49.448Z,11.90
2019-05-10T06:32:53.228Z,11.94
2019-05-10T06:33:50.386Z,12.09
2019-05-10T06:34:49.373Z,11.95
2019-05-10T06:35:49.372Z,12.07
2019-05-10T06:36:49.363Z,12.05
2019-05-10T06:37:49.357Z,12.02
2019-05-10T06:38:49.331Z,11.96
2019-05-10T06:39:49.387Z,12.02
2019-05-10T06:40:49.335Z,11.99
2019-05-10T06:41:49.926Z,12.01
2019-05-10T06:42:50.286Z,12.10
2019-05-10T06:43:51.509Z,12.16
2019-05-10T06:44:49.261Z,12.16
2019-05-10T06:45:52.504Z,12.10
2019-05-10T06:46:49.261Z,12.16
2019-05-10T06:47:52.904Z,12.16
2019-05-10T06:48:49.220Z,12.09
2019-05-10T06:49:52.020Z,12.23
2019-05-10T06:50:49.202Z,12.27
2019-05-10T06:51:50.973Z,12.27
2019-05-10T06:52:52.026Z,12.29
2019-05-10T06:53:53.606Z,12.35
2019-05-10T06:54:49.177Z,12.32
2019-05-10T06:55:49.160Z,12.45
2019-05-10T06:56:49.145Z,12.46
2019-05-10T06:57:50.414Z,12.53
2019-05-10T06:58:50.113Z,12.53
2019-05-10T06:59:49.113Z,12.72
2019-05-10T07:00:49.105Z,12.70
2019-05-10T07:01:52.018Z,12.68
2019-05-10T07:02:49.079Z,12.72
2019-05-10T07:03:49.061Z,12.74
2019-05-10T07:04:51.042Z,12.79
2019-05-10T07:05:49.036Z,12.77
2019-05-10T07:06:49.037Z,12.85
2019-05-10T07:07:49.030Z,12.90
2019-05-10T07:08:51.689Z,12.95
2019-05-10T07:10:13.091Z,12.93
2019-05-10T07:10:50.023Z,12.93
2019-05-10T07:11:48.966Z,13.01
2019-05-10T07:12:49.007Z,13.15
2019-05-10T07:13:52.812Z,13.25
2019-05-10T07:14:48.928Z,13.23
2019-05-10T07:15:48.915Z,13.33
2019-05-10T07:16:48.927Z,13.42
2019-05-10T07:17:48.911Z,13.49
2019-05-10T07:18:48.903Z,13.60
2019-05-10T07:19:53.515Z,13.51
2019-05-10T07:20:49.882Z,13.54
2019-05-10T07:21:51.157Z,13.55
2019-05-10T07:22:48.864Z,13.59
2019-05-10T07:23:48.855Z,13.60
2019-05-10T07:24:48.813Z,13.73
2019-05-10T07:25:48.801Z,13.66
2019-05-10T07:26:48.812Z,13.69
2019-05-10T07:27:50.433Z,13.69
2019-05-10T07:28:51.911Z,13.70
2019-05-10T07:29:49.762Z,13.77
2019-05-10T07:30:48.748Z,13.73
2019-05-10T07:31:48.740Z,13.70
2019-05-10T07:32:48.752Z,13.77
2019-05-10T07:33:48.732Z,13.82
2019-05-10T07:34:58.345Z,13.82
2019-05-10T07:35:49.694Z,13.82
2019-05-10T07:36:48.682Z,13.88
2019-05-10T07:37:51.814Z,13.85
2019-05-10T07:38:48.702Z,13.87
2019-05-10T07:39:48.653Z,13.87
2019-05-10T07:40:48.650Z,13.81
2019-05-10T07:41:48.628Z,13.69
2019-05-10T07:42:48.612Z,13.77
2019-05-10T07:43:48.630Z,13.81
2019-05-10T07:44:48.863Z,13.87
2019-05-10T07:45:48.580Z,13.92
2019-05-10T07:46:54.305Z,14.10
2019-05-10T07:47:49.566Z,14.09
2019-05-10T07:48:53.585Z,14.17
2019-05-10T07:49:49.550Z,14.17
2019-05-10T07:50:51.612Z,14.17
2019-05-10T07:51:48.525Z,14.22
2019-05-10T07:52:48.514Z,14.24
2019-05-10T07:53:48.522Z,14.28
2019-05-10T07:54:48.526Z,14.36
2019-05-10T07:55:48.472Z,14.45
2019-05-10T07:56:48.462Z,14.55
2019-05-10T07:57:48.486Z,14.69
2019-05-10T07:58:48.471Z,14.72
2019-05-10T07:59:50.794Z,14.81
2019-05-10T08:00:48.463Z,14.84
2019-05-10T08:01:49.267Z,14.91
2019-05-10T08:02:52.729Z,14.83
2019-05-10T08:03:52.392Z,14.96
2019-05-10T08:04:52.802Z,15.07
2019-05-10T08:05:54.963Z,14.99
2019-05-10T08:06:52.055Z,15.11
2019-05-10T08:07:49.511Z,15.10
2019-05-10T08:08:49.647Z,15.14
2019-05-10T08:09:48.827Z,15.14
2019-05-10T08:10:48.891Z,15.28
2019-05-10T08:11:48.534Z,15.23
2019-05-10T08:12:48.487Z,15.29
2019-05-10T08:13:48.627Z,15.41
2019-05-10T08:14:51.852Z,15.46
2019-05-10T08:15:49.249Z,15.49
2019-05-10T08:16:49.802Z,15.50
2019-05-10T08:17:51.001Z,15.57
2019-05-10T08:18:49.729Z,15.62
2019-05-10T08:19:48.223Z,15.57
2019-05-10T08:20:54.053Z,15.68
2019-05-10T08:21:56.481Z,15.65
2019-05-10T08:22:49.193Z,15.60
2019-05-10T08:23:48.172Z,15.56
2019-05-10T08:24:52.635Z,15.56
2019-05-10T08:25:49.137Z,15.65
2019-05-10T08:26:48.135Z,15.64
2019-05-10T08:27:50.506Z,15.71
2019-05-10T08:28:49.114Z,15.68
2019-05-10T08:29:50.960Z,15.71
2019-05-10T08:30:53.471Z,15.74
2019-05-10T08:31:53.648Z,15.75
2019-05-10T08:32:49.105Z,15.75
2019-05-10T08:33:56.211Z,15.84
2019-05-10T08:34:53.038Z,15.82
2019-05-10T08:35:52.478Z,15.75
2019-05-10T08:36:49.016Z,15.71
2019-05-10T08:37:48.017Z,15.65
2019-05-10T08:38:58.938Z,15.65
2019-05-10T08:39:51.393Z,15.68
2019-05-10T08:40:48.995Z,15.64
2019-05-10T08:42:03.600Z,15.50
2019-05-10T08:43:02.932Z,15.49
2019-05-10T08:43:48.960Z,15.56
2019-05-10T08:44:54.119Z,15.54
2019-05-10T08:45:49.588Z,15.44
2019-05-10T08:46:47.908Z,15.41
2019-05-10T08:47:52.873Z,15.39
2019-05-10T08:48:51.314Z,15.31
2019-05-10T08:50:06.533Z,15.29
2019-05-10T08:50:54.038Z,15.28
2019-05-10T08:51:49.465Z,15.19
2019-05-10T08:52:47.841Z,15.19
2019-05-10T08:53:55.194Z,15.23
2019-05-10T08:54:48.819Z,15.25
2019-05-10T08:55:47.833Z,15.23
2019-05-10T08:56:52.992Z,15.23
2019-05-10T08:57:49.400Z,15.16
2019-05-10T08:58:47.777Z,15.29
2019-05-10T08:59:47.776Z,15.38
2019-05-10T09:00:55.099Z,15.38
2019-05-10T09:01:50.795Z,15.44
2019-05-10T09:02:47.742Z,15.56
2019-05-10T09:03:55.629Z,15.56
2019-05-10T09:04:50.158Z,15.47
2019-05-10T09:05:47.697Z,15.46
2019-05-10T09:06:52.718Z,15.57
2019-05-10T09:07:48.679Z,15.44
2019-05-10T09:08:52.831Z,15.53
2019-05-10T09:09:50.115Z,15.51
2019-05-10T09:10:47.647Z,15.53
2019-05-10T09:11:47.671Z,15.47
2019-05-10T09:12:57.618Z,15.44
2019-05-10T09:13:48.618Z,15.44
2019-05-10T09:14:48.926Z,15.43
2019-05-10T09:15:52.069Z,15.36
2019-05-10T09:16:57.619Z,15.23
2019-05-10T09:17:48.584Z,15.27
2019-05-10T09:18:51.231Z,15.38
2019-05-10T09:19:48.555Z,15.39
2019-05-10T09:20:47.542Z,15.46
2019-05-10T09:21:49.856Z,15.44
2019-05-10T09:22:47.528Z,15.47
2019-05-10T09:23:53.021Z,15.38
2019-05-10T09:24:49.947Z,15.49
2019-05-10T09:25:47.481Z,15.43
2019-05-10T09:26:52.784Z,15.50
2019-05-10T09:27:48.489Z,15.57
2019-05-10T09:28:52.329Z,15.56
2019-05-10T09:29:48.461Z,15.62
2019-05-10T09:31:00.073Z,15.67
2019-05-10T09:31:50.677Z,15.74
2019-05-10T09:32:47.422Z,15.75
2019-05-10T09:33:49.556Z,15.75
2019-05-10T09:34:47.389Z,15.80
2019-05-10T09:35:52.347Z,15.83
2019-05-10T09:36:48.364Z,15.84
2019-05-10T09:37:47.618Z,15.92
2019-05-10T09:38:48.372Z,15.96
2019-05-10T09:39:47.327Z,16.02
2019-05-10T09:40:53.000Z,16.00
2019-05-10T09:41:48.300Z,16.02
2019-05-10T09:42:47.310Z,16.09
2019-05-10T09:43:48.894Z,16.23
2019-05-10T09:44:47.274Z,16.28
2019-05-10T09:45:47.258Z,16.25
2019-05-10T09:46:47.259Z,16.43
2019-05-10T09:47:47.264Z,16.45
2019-05-10T09:48:47.250Z,16.57
2019-05-10T09:49:54.112Z,16.52
2019-05-10T09:50:48.224Z,16.58
2019-05-10T09:51:47.191Z,16.60
2019-05-10T09:52:47.194Z,16.71
2019-05-10T09:53:48.565Z,16.67
2019-05-10T09:54:49.476Z,16.81
2019-05-10T09:55:55.366Z,16.94
2019-05-10T09:56:52.119Z,16.94
2019-05-10T09:57:47.994Z,16.91
2019-05-10T09:58:48.462Z,16.94
2019-05-10T09:59:47.142Z,16.98
2019-05-10T10:00:48.536Z,16.93
2019-05-10T10:01:48.421Z,16.94
2019-05-10T10:02:55.991Z,16.86
2019-05-10T10:03:48.077Z,16.85
2019-05-10T10:04:47.409Z,16.91
2019-05-10T10:05:48.259Z,16.79
2019-05-10T10:06:51.204Z,16.91
2019-05-10T10:07:48.186Z,16.89
2019-05-10T10:08:51.126Z,16.83
2019-05-10T10:09:48.012Z,16.93
2019-05-10T10:10:47.645Z,16.91
2019-05-10T10:11:57.286Z,16.89
2019-05-10T10:12:47.970Z,16.89
2019-05-10T10:13:50.206Z,17.00
2019-05-10T10:14:47.936Z,16.97
2019-05-10T10:15:52.029Z,17.01
2019-05-10T10:16:57.881Z,16.81
2019-05-10T10:17:47.918Z,16.89
2019-05-10T10:18:47.653Z,16.86
2019-05-10T10:19:48.078Z,16.71
2019-05-10T10:20:48.133Z,16.81
2019-05-10T10:21:47.595Z,16.78
2019-05-10T10:22:49.681Z,16.75
2019-05-10T10:23:47.860Z,16.75
2019-05-10T10:24:49.059Z,16.82
2019-05-10T10:25:48.509Z,16.85
2019-05-10T10:26:48.214Z,16.94
2019-05-10T10:27:48.035Z,17.01
2019-05-10T10:28:49.600Z,17.15
2019-05-10T10:29:47.813Z,17.36
2019-05-10T10:30:50.500Z,17.37
2019-05-10T10:31:55.249Z,17.46
2019-05-10T10:32:47.784Z,17.52
2019-05-10T10:33:56.966Z,17.68
2019-05-10T10:34:52.454Z,17.66
2019-05-10T10:35:48.221Z,17.86
2019-05-10T10:36:47.529Z,17.90
2019-05-10T10:37:47.544Z,18.08
2019-05-10T10:38:49.504Z,18.02
2019-05-10T10:39:47.710Z,18.15
2019-05-10T10:40:46.653Z,18.23
2019-05-10T10:41:48.171Z,18.27
2019-05-10T10:42:47.346Z,18.33
2019-05-10T10:43:48.464Z,18.44
2019-05-10T10:44:48.299Z,18.44
2019-05-10T10:45:46.612Z,18.37
2019-05-10T10:46:47.975Z,18.39
2019-05-10T10:47:47.202Z,18.37
2019-05-10T10:48:49.297Z,18.32
2019-05-10T10:49:46.555Z,18.37
2019-05-10T10:50:51.249Z,18.48
2019-05-10T10:51:47.526Z,18.54
2019-05-10T10:52:46.532Z,18.48
2019-05-10T10:53:47.085Z,18.62
2019-05-10T10:54:47.905Z,18.57
2019-05-10T10:55:54.064Z,18.67
2019-05-10T10:56:48.251Z,18.75
2019-05-10T10:57:48.149Z,18.81
2019-05-10T10:58:49.693Z,18.91
2019-05-10T10:59:47.475Z,18.92
2019-05-10T11:00:48.166Z,19.07
2019-05-10T11:01:52.009Z,19.02
2019-05-10T11:02:52.052Z,19.11
2019-05-10T11:03:48.893Z,19.25
2019-05-10T11:04:48.761Z,19.26
2019-05-10T11:05:46.387Z,19.31
2019-05-10T11:06:46.382Z,19.36
2019-05-10T11:07:47.832Z,19.41
2019-05-10T11:08:46.350Z,19.41
2019-05-10T11:09:46.336Z,19.48
2019-05-10T11:10:46.356Z,19.51
2019-05-10T11:11:46.306Z,19.62
2019-05-10T11:12:46.316Z,19.62
2019-05-10T11:13:57.811Z,19.61
2019-05-10T11:14:47.285Z,19.65
2019-05-10T11:15:46.279Z,19.63
2019-05-10T11:16:46.849Z,19.68
2019-05-10T11:17:47.240Z,19.73
2019-05-10T11:18:46.242Z,19.78
2019-05-10T11:19:46.225Z,19.73
2019-05-10T11:20:49.540Z,19.76
2019-05-10T11:21:47.208Z,19.78
2019-05-10T11:22:49.762Z,19.84
2019-05-10T11:23:47.177Z,19.83
2019-05-10T11:24:53.399Z,19.91
2019-05-10T11:25:54.854Z,19.86
2019-05-10T11:26:47.149Z,19.94
2019-05-10T11:27:47.564Z,19.98
2019-05-10T11:28:47.121Z,20.02
2019-05-10T11:29:46.127Z,20.02
2019-05-10T11:30:46.125Z,20.10
2019-05-10T11:31:49.956Z,20.16
2019-05-10T11:32:47.099Z,20.20
2019-05-10T11:33:47.559Z,20.26
2019-05-10T11:34:47.069Z,20.14
2019-05-10T11:35:46.085Z,20.18
2019-05-10T11:36:48.179Z,20.20
2019-05-10T11:37:46.033Z,20.05
2019-05-10T11:38:46.937Z,19.92
2019-05-10T11:39:47.197Z,19.86
2019-05-10T11:40:45.997Z,19.78
2019-05-10T11:41:46.007Z,19.81
2019-05-10T11:42:47.433Z,19.77
2019-05-10T11:43:45.962Z,19.74
2019-05-10T11:44:50.231Z,19.76
2019-05-10T11:45:46.939Z,19.76
2019-05-10T11:46:45.966Z,19.74
2019-05-10T11:47:47.978Z,19.77
2019-05-10T11:48:46.920Z,19.77
2019-05-10T11:49:45.924Z,19.74
2019-05-10T11:50:45.885Z,19.77
2019-05-10T11:51:47.891Z,19.78
2019-05-10T11:52:46.888Z,19.69
2019-05-10T11:53:48.841Z,19.80
2019-05-10T11:54:46.851Z,19.77
2019-05-10T11:55:45.857Z,19.71
2019-05-10T11:56:45.854Z,19.61
2019-05-10T11:57:59.979Z,19.62
2019-05-10T11:58:55.041Z,19.59
2019-05-10T11:59:46.818Z,19.68
2019-05-10T12:00:45.796Z,19.68
2019-05-10T12:01:56.848Z,19.74
2019-05-10T12:03:03.215Z,19.78
2019-05-10T12:03:46.754Z,19.96
2019-05-10T12:04:45.731Z,19.91
2019-05-10T12:05:45.726Z,20.08
2019-05-10T12:06:50.050Z,20.06
2019-05-10T12:07:46.717Z,20.06
2019-05-10T12:08:45.690Z,19.99
2019-05-10T12:09:53.371Z,19.98
2019-05-10T12:13:04.956Z,20.03
2019-05-10T12:13:46.648Z,20.05
2019-05-10T12:14:46.587Z,20.08
2019-05-10T12:15:45.707Z,20.21
2019-05-10T12:16:45.601Z,20.17
2019-05-10T12:17:46.884Z,20.20
2019-05-10T12:19:02.290Z,20.32
2019-05-10T12:19:50.504Z,20.36
2019-05-10T12:21:00.230Z,20.36
2019-05-10T12:21:46.613Z,20.35
2019-05-10T12:22:47.394Z,20.48
2019-05-10T12:23:50.574Z,20.38
2019-05-10T12:25:05.142Z,20.28
2019-05-10T12:26:05.228Z,19.96
2019-05-10T12:26:19.808Z,20.29
2019-05-10T12:26:50.609Z,20.03
2019-05-10T12:27:49.145Z,20.13
2019-05-10T12:28:46.494Z,20.13
2019-05-10T12:29:46.652Z,20.08
2019-05-10T12:30:46.466Z,20.16
2019-05-10T12:31:47.353Z,20.14
2019-05-10T12:32:55.522Z,20.16
2019-05-10T12:33:46.433Z,20.18
2019-05-10T12:34:46.016Z,20.21
2019-05-10T12:35:47.477Z,20.23
2019-05-10T12:36:45.417Z,20.20
2019-05-10T12:37:53.107Z,20.33
2019-05-10T12:38:46.377Z,20.33
2019-05-10T12:39:45.367Z,20.39
2019-05-10T12:40:45.956Z,20.50
2019-05-10T12:41:49.618Z,20.55
2019-05-10T12:42:47.145Z,20.58
2019-05-10T12:43:48.347Z,20.61
2019-05-10T12:44:47.995Z,20.62
2019-05-10T12:45:45.290Z,20.72
2019-05-10T12:46:45.293Z,20.58
2019-05-10T12:47:45.279Z,20.57
2019-05-10T12:48:45.276Z,20.48
2019-05-10T12:49:45.238Z,20.50
2019-05-10T12:50:45.269Z,20.52
2019-05-10T12:51:45.210Z,20.43
2019-05-10T12:52:50.553Z,20.42
2019-05-10T12:53:49.182Z,20.57
2019-05-10T12:54:46.230Z,20.62
2019-05-10T12:55:45.173Z,20.59
2019-05-10T12:56:46.163Z,20.58
2019-05-10T12:57:45.150Z,20.59
2019-05-10T12:58:45.142Z,20.59
2019-05-10T12:59:45.159Z,20.72